createdAt,value
2022-10-19T00:00:19.056Z,9.63
2022-10-19T00:03:23.283Z,9.58
2022-10-19T00:06:29.880Z,9.59
2022-10-19T00:09:33.309Z,9.58
2022-10-19T00:12:36.446Z,9.53
2022-10-19T00:15:42.351Z,9.48
2022-10-19T00:18:46.657Z,9.46
2022-10-19T00:24:55.915Z,9.38
2022-10-19T00:28:01.451Z,9.36
2022-10-19T00:31:06.787Z,9.29
2022-10-19T00:34:10.429Z,9.35
2022-10-19T00:37:12.995Z,9.37
2022-10-19T00:40:16.959Z,9.41
2022-10-19T00:43:31.471Z,9.41
2022-10-19T00:46:37.729Z,9.37
2022-10-19T00:49:44.821Z,9.36
2022-10-19T00:52:47.930Z,9.31
2022-10-19T00:55:50.737Z,9.19
2022-10-19T00:58:53.889Z,9.16
2022-10-19T01:01:56.716Z,9.19
2022-10-19T01:05:01.482Z,9.19
2022-10-19T01:08:09.747Z,9.16
2022-10-19T01:11:18.937Z,9.05
2022-10-19T01:14:28.324Z,9.01
2022-10-19T01:18:21.816Z,9.04
2022-10-19T01:21:47.088Z,8.97
2022-10-19T01:25:24.027Z,8.90
2022-10-19T01:28:44.616Z,8.91
2022-10-19T01:32:05.768Z,8.88
2022-10-19T01:35:34.053Z,8.93
2022-10-19T01:39:09.307Z,8.95
2022-10-19T01:42:18.987Z,8.94
2022-10-19T01:45:30.487Z,8.98
2022-10-19T01:48:39.012Z,8.95
2022-10-19T01:51:48.748Z,8.93
2022-10-19T01:54:57.109Z,8.89
2022-10-19T01:58:08.303Z,8.82
2022-10-19T02:01:15.749Z,8.76
2022-10-19T02:04:21.673Z,8.63
2022-10-19T02:07:25.350Z,8.62
2022-10-19T02:10:31.208Z,8.66
2022-10-19T02:13:35.814Z,8.69
2022-10-19T02:16:47.907Z,8.77
2022-10-19T02:19:51.163Z,8.80
2022-10-19T02:22:53.909Z,8.81
2022-10-19T02:25:57.901Z,8.90
2022-10-19T02:29:03.527Z,8.97
2022-10-19T02:32:09.088Z,9.05
2022-10-19T02:35:14.567Z,9.08
2022-10-19T02:38:22.141Z,9.17
2022-10-19T02:41:32.264Z,9.27
2022-10-19T02:44:48.128Z,9.33
2022-10-19T02:48:21.935Z,9.36
2022-10-19T02:51:33.027Z,9.39
2022-10-19T02:54:37.478Z,9.42
2022-10-19T02:57:40.554Z,9.45
2022-10-19T03:00:43.644Z,9.50
2022-10-19T03:03:46.811Z,9.59
2022-10-19T03:06:49.527Z,9.58
2022-10-19T03:09:53.317Z,9.70
2022-10-19T03:12:58.557Z,9.78
2022-10-19T03:16:11.912Z,9.91
2022-10-19T03:19:14.695Z,10.01
2022-10-19T03:22:18.168Z,10.04
2022-10-19T03:25:21.054Z,10.09
2022-10-19T03:28:23.957Z,10.18
2022-10-19T03:31:27.288Z,10.32
2022-10-19T03:34:30.465Z,10.46
2022-10-19T03:37:33.303Z,10.61
2022-10-19T03:40:36.884Z,10.73
2022-10-19T03:43:41.388Z,10.87
2022-10-19T03:46:47.308Z,11.00
2022-10-19T03:49:54.194Z,11.07
2022-10-19T03:52:57.145Z,11.10
2022-10-19T03:56:14.804Z,11.07
2022-10-19T03:59:20.677Z,10.98
2022-10-19T04:02:23.299Z,10.92
2022-10-19T04:05:26.293Z,10.83
2022-10-19T04:08:28.925Z,10.78
2022-10-19T04:11:34.916Z,10.85
2022-10-19T04:14:56.200Z,10.97
2022-10-19T04:18:01.226Z,11.05
2022-10-19T04:21:06.349Z,11.10
2022-10-19T04:24:15.143Z,11.12
2022-10-19T04:27:35.297Z,11.10
2022-10-19T04:30:38.848Z,11.06
2022-10-19T04:33:42.581Z,11.13
2022-10-19T04:36:46.329Z,11.20
2022-10-19T04:39:49.244Z,11.28
2022-10-19T04:42:52.125Z,11.34
2022-10-19T04:45:55.807Z,11.41
2022-10-19T04:49:01.412Z,11.38
2022-10-19T04:52:05.432Z,11.42
2022-10-19T04:55:09.224Z,11.47
2022-10-19T04:58:18.339Z,11.54
2022-10-19T05:01:24.050Z,11.63
2022-10-19T05:04:27.087Z,11.70
2022-10-19T05:07:32.157Z,11.70
2022-10-19T05:10:37.112Z,11.74
2022-10-19T05:13:42.920Z,11.72
2022-10-19T05:16:46.335Z,11.68
2022-10-19T05:19:49.309Z,11.69
2022-10-19T05:22:54.138Z,11.65
2022-10-19T05:26:12.920Z,11.63
2022-10-19T05:29:16.732Z,11.60
2022-10-19T05:32:22.879Z,11.56
2022-10-19T05:35:26.777Z,11.55
2022-10-19T05:38:30.119Z,11.64
2022-10-19T05:41:34.227Z,11.81
2022-10-19T05:47:41.848Z,12.01
2022-10-19T05:50:55.805Z,12.16
2022-10-19T05:53:58.922Z,12.34
2022-10-19T05:57:02.689Z,12.77
2022-10-19T06:00:07.083Z,13.47
2022-10-19T06:03:15.925Z,14.12
2022-10-19T06:06:25.971Z,14.82
2022-10-19T06:09:35.985Z,15.34
2022-10-19T06:12:39.460Z,15.93
2022-10-19T06:15:43.683Z,16.42
2022-10-19T06:18:47.111Z,16.89
2022-10-19T06:21:50.881Z,17.35
2022-10-19T06:24:54.969Z,17.80
2022-10-19T06:27:58.904Z,18.08
2022-10-19T06:31:09.661Z,18.38
2022-10-19T06:34:13.439Z,18.66
2022-10-19T06:37:17.463Z,19.03
2022-10-19T06:40:20.882Z,19.40
2022-10-19T06:43:24.476Z,19.65
2022-10-19T06:46:34.217Z,19.88
2022-10-19T06:49:42.383Z,20.20
2022-10-19T06:52:48.474Z,20.34
2022-10-19T06:55:53.579Z,20.66
2022-10-19T06:58:56.437Z,20.88
2022-10-19T07:02:00.690Z,21.10
2022-10-19T07:05:07.962Z,21.26
2022-10-19T07:08:12.006Z,21.62
2022-10-19T07:11:18.008Z,21.73
2022-10-19T07:14:25.009Z,21.89
2022-10-19T07:17:33.226Z,21.93
2022-10-19T07:20:38.133Z,22.06
2022-10-19T07:23:44.263Z,22.03
2022-10-19T07:26:50.316Z,22.26
2022-10-19T07:29:53.072Z,22.40
2022-10-19T07:32:56.100Z,22.61
2022-10-19T07:36:00.884Z,22.34
2022-10-19T07:39:06.408Z,22.55
2022-10-19T07:42:09.634Z,22.69
2022-10-19T07:45:16.744Z,22.79
2022-10-19T07:48:20.083Z,22.66
2022-10-19T07:51:23.316Z,23.00
2022-10-19T07:54:27.530Z,22.34
2022-10-19T07:57:30.590Z,21.96
2022-10-19T08:00:33.556Z,22.63
2022-10-19T08:07:12.012Z,23.13
2022-10-19T08:10:16.556Z,22.97
2022-10-19T08:13:20.702Z,23.05
2022-10-19T08:16:29.127Z,23.20
2022-10-19T08:19:33.185Z,22.96
2022-10-19T08:22:37.479Z,22.51
2022-10-19T08:25:42.952Z,21.37
2022-10-19T08:28:47.608Z,22.25
2022-10-19T08:31:50.489Z,23.16
2022-10-19T08:34:55.279Z,22.74
2022-10-19T08:37:58.733Z,22.39
2022-10-19T08:41:19.357Z,23.07
2022-10-19T08:44:46.510Z,21.44
2022-10-19T08:47:59.987Z,21.88
2022-10-19T08:51:05.672Z,21.35
2022-10-19T08:54:23.073Z,21.33
2022-10-19T08:57:36.463Z,22.00
2022-10-19T09:01:10.884Z,21.82
2022-10-19T09:04:20.156Z,20.98
2022-10-19T09:07:32.765Z,21.58
2022-10-19T09:10:43.195Z,20.50
2022-10-19T09:14:04.703Z,21.48
2022-10-19T09:17:15.933Z,21.26
2022-10-19T09:20:23.212Z,21.39
2022-10-19T09:23:40.013Z,22.12
2022-10-19T09:26:52.208Z,21.29
2022-10-19T09:29:59.225Z,21.13
2022-10-19T09:33:03.047Z,21.07
2022-10-19T09:36:10.402Z,21.05
2022-10-19T09:39:17.635Z,20.64
2022-10-19T09:42:26.375Z,22.09
2022-10-19T09:45:35.758Z,22.66
2022-10-19T09:48:46.003Z,21.79
2022-10-19T09:51:52.407Z,22.22
2022-10-19T09:55:07.199Z,22.54
2022-10-19T09:58:14.004Z,22.01
2022-10-19T10:01:41.486Z,21.59
2022-10-19T10:05:03.754Z,22.50
2022-10-19T10:08:19.799Z,21.92
2022-10-19T10:11:31.992Z,22.13
2022-10-19T10:14:37.031Z,21.26
2022-10-19T10:17:40.124Z,20.94
2022-10-19T10:21:25.184Z,20.76
2022-10-19T10:24:30.979Z,20.87
2022-10-19T10:27:37.095Z,20.88
2022-10-19T10:30:53.906Z,20.92
2022-10-19T10:34:11.144Z,21.46
2022-10-19T10:37:41.845Z,20.32
2022-10-19T10:41:01.915Z,20.51
2022-10-19T10:44:19.191Z,20.36
2022-10-19T10:47:32.460Z,20.31
2022-10-19T10:50:37.317Z,20.28
2022-10-19T10:53:43.594Z,20.86
2022-10-19T10:57:06.349Z,21.36
2022-10-19T11:00:18.372Z,21.26
2022-10-19T11:03:32.856Z,21.42
2022-10-19T11:06:44.830Z,21.28
2022-10-19T11:09:54.286Z,21.30
2022-10-19T11:13:24.103Z,21.26
2022-10-19T11:16:29.965Z,21.16
2022-10-19T11:19:37.995Z,21.12
2022-10-19T11:23:10.015Z,20.78
2022-10-19T11:26:39.687Z,20.84
2022-10-19T11:29:52.652Z,20.78
2022-10-19T11:32:59.137Z,20.78
2022-10-19T11:36:07.991Z,20.65
2022-10-19T11:39:44.994Z,20.60
2022-10-19T11:43:04.894Z,20.65
2022-10-19T11:46:35.172Z,20.50
2022-10-19T11:49:59.305Z,20.42
2022-10-19T11:53:20.661Z,20.18
2022-10-19T11:57:03.963Z,19.98
2022-10-19T12:00:38.238Z,19.93
2022-10-19T12:04:19.991Z,19.78
2022-10-19T12:07:45.022Z,19.78
2022-10-19T12:11:19.052Z,19.80
2022-10-19T12:14:31.276Z,19.86
2022-10-19T12:17:44.254Z,20.08
2022-10-19T12:20:53.532Z,20.05
2022-10-19T12:24:00.777Z,19.98
2022-10-19T12:27:18.143Z,19.91
2022-10-19T12:30:26.489Z,19.63
2022-10-19T12:33:47.983Z,19.52
2022-10-19T12:37:07.540Z,19.33
2022-10-19T12:40:23.972Z,19.19
2022-10-19T12:43:43.607Z,19.03
2022-10-19T12:46:57.561Z,18.88
2022-10-19T12:50:09.134Z,18.75
2022-10-19T12:56:48.771Z,18.63
2022-10-19T13:00:24.096Z,18.68
2022-10-19T13:03:43.079Z,18.68
2022-10-19T13:07:00.995Z,18.66
2022-10-19T13:10:20.418Z,18.56
2022-10-19T13:13:57.556Z,18.50
2022-10-19T13:17:02.758Z,18.42
2022-10-19T13:20:20.239Z,18.37
2022-10-19T13:23:32.215Z,18.38
2022-10-19T13:26:36.278Z,18.35
2022-10-19T13:29:42.925Z,18.28
2022-10-19T13:32:46.287Z,18.27
2022-10-19T13:36:00.343Z,18.27
2022-10-19T13:39:08.758Z,18.26
2022-10-19T13:42:31.039Z,18.22
2022-10-19T13:45:39.247Z,18.20
2022-10-19T13:49:04.200Z,18.14
2022-10-19T13:52:35.362Z,18.04
2022-10-19T13:56:22.880Z,17.95
2022-10-19T13:59:54.980Z,17.94
2022-10-19T14:03:29.230Z,17.87
2022-10-19T14:06:44.179Z,17.74
2022-10-19T14:10:14.414Z,17.74
2022-10-19T14:13:26.237Z,17.68
2022-10-19T14:16:37.926Z,17.68
2022-10-19T14:20:00.302Z,17.61
2022-10-19T14:23:27.265Z,17.58
2022-10-19T14:26:35.068Z,17.52
2022-10-19T14:29:49.791Z,17.49
2022-10-19T14:32:58.039Z,17.36
2022-10-19T14:36:18.006Z,17.27
2022-10-19T14:39:35.167Z,17.19
2022-10-19T14:42:43.260Z,17.08
2022-10-19T14:46:06.663Z,16.97
2022-10-19T14:49:16.321Z,16.84
2022-10-19T14:52:35.089Z,16.76
2022-10-19T14:55:43.017Z,16.66
2022-10-19T14:58:58.845Z,16.59
2022-10-19T15:02:13.000Z,16.51
2022-10-19T15:05:23.941Z,16.41
2022-10-19T15:08:45.120Z,16.33
2022-10-19T15:11:53.152Z,16.25
2022-10-19T15:15:01.430Z,16.13
2022-10-19T15:18:43.374Z,16.04
2022-10-19T15:21:47.154Z,15.92
2022-10-19T15:24:58.223Z,15.79
2022-10-19T15:28:22.324Z,15.75
2022-10-19T15:31:30.353Z,15.69
2022-10-19T15:34:43.997Z,15.61
2022-10-19T15:37:56.921Z,15.50
2022-10-19T15:41:07.691Z,15.48
2022-10-19T15:44:33.143Z,15.38
2022-10-19T15:47:37.975Z,15.31
2022-10-19T15:50:48.059Z,15.23
2022-10-19T15:54:15.982Z,15.18
2022-10-19T15:57:31.025Z,15.11
2022-10-19T16:00:43.272Z,15.02
2022-10-19T16:03:47.247Z,14.97
2022-10-19T16:06:52.034Z,14.93
2022-10-19T16:10:06.976Z,14.90
2022-10-19T16:13:11.173Z,14.83
2022-10-19T16:16:22.812Z,14.80
2022-10-19T16:19:35.136Z,14.73
2022-10-19T16:22:40.007Z,14.70
2022-10-19T16:26:01.482Z,14.61
2022-10-19T16:29:26.728Z,14.52
2022-10-19T16:57:46.010Z,13.99
2022-10-19T17:00:58.008Z,13.90
2022-10-19T17:04:03.655Z,13.81
2022-10-19T17:07:09.039Z,13.74
2022-10-19T17:10:23.220Z,13.70
2022-10-19T17:13:35.991Z,13.61
2022-10-19T17:16:41.942Z,13.60
2022-10-19T17:20:00.269Z,13.55
2022-10-19T17:23:56.170Z,13.51
2022-10-19T17:27:09.550Z,13.40
2022-10-19T17:30:19.025Z,13.34
2022-10-19T17:33:29.485Z,13.23
2022-10-19T17:39:52.138Z,13.09
2022-10-19T17:43:13.016Z,12.92
2022-10-19T17:46:32.271Z,12.76
2022-10-19T17:49:59.962Z,12.68
2022-10-19T17:53:06.603Z,12.59
2022-10-19T17:56:20.248Z,12.52
2022-10-19T17:59:46.633Z,12.43
2022-10-19T18:06:47.478Z,12.48
2022-10-19T18:10:03.015Z,12.42
2022-10-19T18:13:20.075Z,12.41
2022-10-19T18:17:04.826Z,12.41
2022-10-19T18:20:27.157Z,12.46
2022-10-19T18:23:39.169Z,12.49
2022-10-19T18:26:43.202Z,12.50
2022-10-19T18:29:49.118Z,12.44
2022-10-19T18:32:54.934Z,12.33
2022-10-19T18:36:01.000Z,12.28
2022-10-19T18:39:07.750Z,12.25
2022-10-19T18:42:13.310Z,12.17
2022-10-19T18:45:19.979Z,12.07
2022-10-19T18:48:29.171Z,11.89
2022-10-19T18:51:54.289Z,11.88
2022-10-19T18:55:08.137Z,11.80
2022-10-19T18:58:21.207Z,11.61
2022-10-19T19:01:35.947Z,11.46
2022-10-19T19:04:55.064Z,11.30
2022-10-19T19:08:09.010Z,11.20
2022-10-19T19:11:22.446Z,11.19
2022-10-19T19:14:26.509Z,11.17
2022-10-19T19:17:31.048Z,11.12
2022-10-19T19:20:48.030Z,11.05
2022-10-19T19:24:00.034Z,10.98
2022-10-19T19:27:05.183Z,11.05
2022-10-19T19:30:11.999Z,11.10
2022-10-19T19:33:16.108Z,11.12
2022-10-19T19:36:32.216Z,11.17
2022-10-19T19:39:46.152Z,11.21
2022-10-19T19:42:50.111Z,11.21
2022-10-19T19:46:07.908Z,11.21
2022-10-19T19:49:15.979Z,11.19
2022-10-19T19:52:22.998Z,11.15
2022-10-19T19:55:28.724Z,11.08
2022-10-19T19:58:38.028Z,10.91
2022-10-19T20:01:43.022Z,10.76
2022-10-19T20:04:46.953Z,10.61
2022-10-19T20:07:51.355Z,10.43
2022-10-19T20:10:55.269Z,10.32
2022-10-19T20:14:00.252Z,10.25
2022-10-19T20:17:04.718Z,10.16
2022-10-19T20:20:14.439Z,10.13
2022-10-19T20:23:17.816Z,9.97
2022-10-19T20:26:49.118Z,9.90
2022-10-19T20:30:00.975Z,9.83
2022-10-19T20:33:06.951Z,9.80
2022-10-19T20:45:39.245Z,9.39
2022-10-19T20:48:59.988Z,9.37
2022-10-19T20:52:13.443Z,9.40
2022-10-19T20:55:16.907Z,9.39
2022-10-19T20:58:21.987Z,9.37
2022-10-19T21:01:27.298Z,9.41
2022-10-19T21:04:31.715Z,9.43
2022-10-19T21:07:34.491Z,9.37
2022-10-19T21:10:37.858Z,9.30
2022-10-19T21:13:41.586Z,9.24
2022-10-19T21:16:45.041Z,9.25
2022-10-19T21:19:48.918Z,9.28
2022-10-19T21:22:52.282Z,9.27
2022-10-19T21:26:03.200Z,9.24
2022-10-19T21:29:09.766Z,9.20
2022-10-19T21:32:12.867Z,9.20
2022-10-19T21:35:16.252Z,9.18
2022-10-19T21:38:19.292Z,9.18
2022-10-19T21:41:26.199Z,9.14
2022-10-19T21:44:30.084Z,9.14
2022-10-19T21:47:33.169Z,9.11
2022-10-19T21:50:42.305Z,9.10
2022-10-19T21:53:47.151Z,9.06
2022-10-19T21:56:50.786Z,9.02
2022-10-19T21:59:53.765Z,8.96
2022-10-19T22:02:56.752Z,8.97
2022-10-19T22:06:00.788Z,8.88
2022-10-19T22:09:06.434Z,8.80
2022-10-19T22:12:10.094Z,8.78
2022-10-19T22:15:15.036Z,8.81
2022-10-19T22:18:19.323Z,8.81
2022-10-19T22:21:25.811Z,8.79
2022-10-19T22:24:29.281Z,8.72
2022-10-19T22:27:32.434Z,8.62
2022-10-19T22:33:45.944Z,8.45
2022-10-19T22:36:50.764Z,8.28
2022-10-19T22:39:54.006Z,8.15
2022-10-19T22:42:57.276Z,8.10
2022-10-19T22:46:00.249Z,8.07
2022-10-19T22:49:04.531Z,7.98
2022-10-19T22:52:08.101Z,7.87
2022-10-19T22:55:12.439Z,7.85
2022-10-19T22:58:15.961Z,7.77
2022-10-19T23:01:19.600Z,7.69
2022-10-19T23:04:22.976Z,7.63
2022-10-19T23:07:26.367Z,7.54
2022-10-19T23:10:29.611Z,7.50
2022-10-19T23:13:32.757Z,7.42
2022-10-19T23:16:38.947Z,7.39
2022-10-19T23:19:42.105Z,7.34
2022-10-19T23:22:45.131Z,7.28
2022-10-19T23:26:08.417Z,7.12
2022-10-19T23:29:12.386Z,7.03
2022-10-19T23:32:15.617Z,6.97
2022-10-19T23:35:18.241Z,6.93
2022-10-19T23:38:21.068Z,6.86
2022-10-19T23:41:24.825Z,6.79
2022-10-19T23:44:27.898Z,6.77
2022-10-19T23:47:30.661Z,6.77
2022-10-19T23:50:33.412Z,6.68
2022-10-19T23:53:40.897Z,6.63
2022-10-19T23:56:45.774Z,6.57
2022-10-19T23:59:48.302Z,6.58
